Time;durP1;ratioP1;P1;durP2;ratioP2;P2;SDS_P1;SDS_P2;PMS_P1;PMS_P2;Temp;Humidity;BMP_temperature;BMP_pressure;BME280_temperature;BME280_humidity;BME280_pressure;Samples;Min_cycle;Max_cycle;Signal;HPM_P1;HPM_P2
2023/05/12 00:02:17;;;;;;;5.47;3.90;;;15.40;99.90;;;;;;5098101;28;20529;-81
2023/05/12 00:04:42;;;;;;;4.13;3.08;;;15.50;99.90;;;;;;5098270;28;20027;-80
2023/05/12 00:07:08;;;;;;;5.53;4.57;;;15.50;99.90;;;;;;5098216;28;20023;-81
2023/05/12 00:09:35;;;;;;;6.28;4.50;;;15.70;99.90;;;;;;5098190;28;20464;-81
2023/05/12 00:12:01;;;;;;;7.93;5.55;;;15.60;99.90;;;;;;5115223;28;20036;-80
2023/05/12 00:14:27;;;;;;;6.18;4.60;;;15.50;99.90;;;;;;5098171;28;20035;-81
2023/05/12 00:16:52;;;;;;;4.25;3.75;;;15.40;99.90;;;;;;5097949;28;20036;-80
2023/05/12 00:19:19;;;;;;;6.70;5.38;;;15.40;99.90;;;;;;5097403;28;20104;-80
2023/05/12 00:21:45;;;;;;;7.28;5.72;;;15.40;99.90;;;;;;5116038;28;20032;-81
2023/05/12 00:24:10;;;;;;;6.63;5.13;;;15.30;99.90;;;;;;5098151;28;20028;-80
2023/05/12 00:26:36;;;;;;;6.07;4.45;;;15.20;99.90;;;;;;5080796;28;20426;-81
2023/05/12 00:29:02;;;;;;;5.22;4.53;;;15.20;99.90;;;;;;5097787;28;20452;-81
2023/05/12 00:31:29;;;;;;;4.90;4.30;;;15.20;99.90;;;;;;5097830;28;20035;-80
2023/05/12 00:33:55;;;;;;;5.57;4.70;;;15.20;99.90;;;;;;5115566;28;20480;-81
2023/05/12 00:36:21;;;;;;;6.70;4.82;;;15.30;99.90;;;;;;5114710;28;20028;-80
2023/05/12 00:38:46;;;;;;;6.20;5.28;;;15.30;99.90;;;;;;5115970;28;20059;-80
2023/05/12 00:41:12;;;;;;;6.18;4.55;;;15.20;99.90;;;;;;5115648;28;20479;-80
2023/05/12 00:43:38;;;;;;;5.15;4.15;;;15.20;99.90;;;;;;5080422;28;20430;-81
2023/05/12 00:46:05;;;;;;;4.10;3.63;;;15.20;99.90;;;;;;5115595;28;20034;-81
2023/05/12 00:48:31;;;;;;;4.28;3.88;;;15.30;99.90;;;;;;5114811;28;20052;-80
2023/05/12 00:50:58;;;;;;;4.43;4.00;;;15.20;99.90;;;;;;5115729;28;20031;-80
2023/05/12 00:53:24;;;;;;;5.20;4.13;;;15.20;99.90;;;;;;5115298;28;20042;-81
2023/05/12 00:55:50;;;;;;;4.30;3.28;;;15.10;99.90;;;;;;5115087;28;20020;-81
2023/05/12 00:58:15;;;;;;;4.95;3.55;;;15.10;99.90;;;;;;5115547;28;20039;-81
2023/05/12 01:00:41;;;;;;;2.90;2.47;;;15.00;99.90;;;;;;5096916;28;20032;-82
2023/05/12 01:03:07;;;;;;;4.05;2.67;;;15.00;99.90;;;;;;5114825;28;20032;-81
2023/05/12 01:05:46;;;;;;;2.85;2.33;;;15.00;99.90;;;;;;5114849;28;20027;-81
2023/05/12 01:08:12;;;;;;;3.35;1.77;;;15.00;99.90;;;;;;5114193;28;20047;-81
2023/05/12 01:10:43;;;;;;;3.15;2.67;;;15.00;99.90;;;;;;5096750;28;20031;-81
2023/05/12 01:13:09;;;;;;;2.50;2.17;;;15.00;99.90;;;;;;5096818;28;20085;-81
2023/05/12 01:15:38;;;;;;;2.60;2.13;;;15.00;99.90;;;;;;5080203;28;20123;-81
2023/05/12 01:18:05;;;;;;;2.28;1.88;;;15.00;99.90;;;;;;5113684;28;20032;-80
2023/05/12 01:20:31;;;;;;;1.90;1.60;;;15.00;99.90;;;;;;5096689;28;20434;-81
2023/05/12 01:22:58;;;;;;;1.70;1.50;;;15.10;99.90;;;;;;5114832;28;20464;-81
2023/05/12 01:25:25;;;;;;;2.00;1.70;;;15.10;99.90;;;;;;5115170;28;20029;-80
2023/05/12 01:27:52;;;;;;;1.70;1.35;;;15.10;99.90;;;;;;5114818;28;20089;-80
2023/05/12 01:30:18;;;;;;;1.70;1.50;;;15.00;99.90;;;;;;5114768;28;20073;-81
2023/05/12 01:32:44;;;;;;;2.47;1.35;;;14.90;99.90;;;;;;5114774;28;20032;-80
2023/05/12 01:35:10;;;;;;;1.65;1.38;;;14.80;99.90;;;;;;5079747;28;20030;-80
2023/05/12 01:37:36;;;;;;;2.38;1.70;;;14.60;99.90;;;;;;5095973;28;20024;-80
2023/05/12 01:40:01;;;;;;;0.95;0.77;;;14.50;99.90;;;;;;5096307;28;20072;-80
2023/05/12 01:42:27;;;;;;;1.75;1.13;;;14.50;99.90;;;;;;5096460;28;20383;-80
2023/05/12 01:44:53;;;;;;;1.30;1.00;;;14.50;99.90;;;;;;5114510;28;20031;-80
2023/05/12 01:47:20;;;;;;;3.05;1.35;;;14.60;99.90;;;;;;5114356;28;20024;-80
2023/05/12 01:49:46;;;;;;;1.83;1.55;;;14.60;99.90;;;;;;5095752;28;20106;-80
2023/05/12 01:52:11;;;;;;;2.40;1.50;;;14.70;99.90;;;;;;5114076;28;20119;-80
2023/05/12 01:54:37;;;;;;;1.92;1.60;;;14.70;99.90;;;;;;5096253;28;20566;-81
2023/05/12 01:57:03;;;;;;;2.25;1.33;;;14.70;99.90;;;;;;5096068;28;20027;-80
2023/05/12 01:59:29;;;;;;;1.85;1.40;;;14.80;99.90;;;;;;5114322;28;20095;-80
2023/05/12 02:01:55;;;;;;;2.00;1.15;;;14.80;99.90;;;;;;5114296;28;20036;-80
2023/05/12 02:04:20;;;;;;;3.03;2.15;;;14.80;99.90;;;;;;5096250;28;20028;-80
2023/05/12 02:06:46;;;;;;;2.53;2.15;;;14.80;99.90;;;;;;5096013;28;20036;-81
2023/05/12 02:09:12;;;;;;;3.75;2.90;;;14.70;99.90;;;;;;5095761;28;20472;-80
2023/05/12 02:11:37;;;;;;;5.25;2.80;;;14.70;99.90;;;;;;5114127;28;20054;-81
2023/05/12 02:14:03;;;;;;;3.28;2.33;;;14.60;99.90;;;;;;5096319;28;20471;-80
2023/05/12 02:16:29;;;;;;;3.85;3.03;;;14.60;99.90;;;;;;5113857;28;20512;-80
2023/05/12 02:18:54;;;;;;;4.65;3.53;;;14.50;99.90;;;;;;5078646;28;20471;-81
2023/05/12 02:21:20;;;;;;;7.25;4.45;;;14.60;99.90;;;;;;5095840;28;20470;-80
2023/05/12 02:23:46;;;;;;;5.20;3.97;;;14.60;99.90;;;;;;5118049;28;20070;-80
2023/05/12 02:26:11;;;;;;;9.13;6.07;;;14.60;99.90;;;;;;5118358;28;20047;-80
2023/05/12 02:28:37;;;;;;;5.53;3.67;;;14.50;99.90;;;;;;5099850;28;20031;-80
2023/05/12 02:31:03;;;;;;;6.63;5.18;;;14.40;99.90;;;;;;5118255;28;20031;-81
2023/05/12 02:33:29;;;;;;;8.63;6.60;;;14.40;99.90;;;;;;5082774;28;20031;-81
2023/05/12 02:35:55;;;;;;;8.73;5.75;;;14.50;99.90;;;;;;5082949;28;20024;-81
2023/05/12 02:38:21;;;;;;;6.40;5.20;;;14.40;99.90;;;;;;5118043;28;20034;-81
2023/05/12 02:40:46;;;;;;;13.93;8.20;;;14.50;99.90;;;;;;5099800;28;20027;-80
2023/05/12 02:43:12;;;;;;;11.15;7.63;;;14.40;99.90;;;;;;5117718;28;20217;-81
2023/05/12 02:45:38;;;;;;;8.02;6.18;;;14.30;99.90;;;;;;5117873;28;20035;-80
2023/05/12 02:48:04;;;;;;;10.77;7.45;;;14.30;99.90;;;;;;5117484;28;20023;-80
2023/05/12 02:50:30;;;;;;;9.65;7.10;;;14.40;99.90;;;;;;5117551;28;20085;-80
2023/05/12 02:52:56;;;;;;;12.48;9.00;;;14.40;99.90;;;;;;5099550;28;20031;-80
2023/05/12 02:55:22;;;;;;;12.63;7.80;;;14.30;99.90;;;;;;5116475;28;20089;-80
2023/05/12 02:57:47;;;;;;;12.10;8.77;;;14.30;99.90;;;;;;5099578;28;20039;-80
2023/05/12 03:00:13;;;;;;;15.50;10.00;;;14.30;99.90;;;;;;5117619;28;20028;-79
2023/05/12 03:02:39;;;;;;;13.95;10.52;;;14.30;99.90;;;;;;5116308;28;20032;-81
2023/05/12 03:05:07;;;;;;;16.52;11.50;;;14.30;99.90;;;;;;5099797;28;20028;-80
2023/05/12 03:07:33;;;;;;;12.80;9.77;;;14.20;99.90;;;;;;5099649;28;20042;-80
2023/05/12 03:09:58;;;;;;;12.23;8.55;;;14.10;99.90;;;;;;5099043;28;20032;-80
2023/05/12 03:12:24;;;;;;;13.23;9.05;;;14.10;99.90;;;;;;5117519;28;20039;-81
2023/05/12 03:14:50;;;;;;;9.57;7.50;;;14.20;99.90;;;;;;5115778;28;20031;-80
2023/05/12 03:17:16;;;;;;;14.48;9.93;;;14.30;99.90;;;;;;5117299;28;20032;-81
2023/05/12 03:19:41;;;;;;;14.43;11.45;;;14.30;99.90;;;;;;5115876;28;20028;-80
2023/05/12 03:22:07;;;;;;;15.77;11.57;;;14.30;99.90;;;;;;5117003;28;20468;-80
2023/05/12 03:24:33;;;;;;;15.82;11.00;;;14.30;99.90;;;;;;5117134;28;20460;-80
2023/05/12 03:26:59;;;;;;;11.07;8.32;;;14.20;99.90;;;;;;5107701;28;20076;-80
2023/05/12 03:29:25;;;;;;;13.85;10.18;;;14.30;99.90;;;;;;5078535;28;20051;-80
2023/05/12 03:31:51;;;;;;;11.32;9.18;;;14.40;99.90;;;;;;5061834;28;20420;-80
2023/05/12 03:34:17;;;;;;;13.00;9.43;;;14.40;99.90;;;;;;5077342;28;20036;-81
2023/05/12 03:36:42;;;;;;;15.63;12.63;;;14.50;99.90;;;;;;5096496;28;20465;-81
2023/05/12 03:39:08;;;;;;;20.02;14.95;;;14.60;99.90;;;;;;5096454;28;20103;-81
2023/05/12 03:41:34;;;;;;;14.52;10.15;;;14.50;99.90;;;;;;5096239;28;20024;-81
2023/05/12 03:44:00;;;;;;;18.38;12.38;;;14.50;99.90;;;;;;5096124;28;20055;-81
2023/05/12 03:46:26;;;;;;;20.50;14.35;;;14.50;99.90;;;;;;5078464;28;20063;-80
2023/05/12 03:48:52;;;;;;;21.00;14.27;;;14.60;99.90;;;;;;5095968;28;20047;-80
2023/05/12 03:51:18;;;;;;;16.30;12.68;;;14.50;99.90;;;;;;5078080;28;20028;-80
2023/05/12 03:53:46;;;;;;;15.13;10.98;;;14.50;99.90;;;;;;5061644;28;20070;-80
2023/05/12 03:56:12;;;;;;;14.13;10.55;;;14.50;99.90;;;;;;5062236;28;20020;-82
2023/05/12 03:58:37;;;;;;;16.88;11.90;;;14.50;99.90;;;;;;5078224;28;20104;-81
2023/05/12 04:01:03;;;;;;;21.90;15.25;;;14.60;99.90;;;;;;5077931;28;20550;-81
2023/05/12 04:03:29;;;;;;;23.88;17.00;;;14.60;99.90;;;;;;5095719;28;20119;-80
2023/05/12 04:06:02;;;;;;;22.90;16.25;;;14.50;99.90;;;;;;5078258;28;20074;-80
2023/05/12 04:08:28;;;;;;;23.70;15.63;;;14.40;99.90;;;;;;5094692;28;20039;-80
2023/05/12 04:10:55;;;;;;;24.33;17.38;;;14.40;99.90;;;;;;5061059;28;20032;-80
2023/05/12 04:13:20;;;;;;;17.38;12.27;;;14.40;99.90;;;;;;5095930;28;20036;-80
2023/05/12 04:15:46;;;;;;;23.23;16.23;;;14.40;99.90;;;;;;5078021;28;20028;-80
2023/05/12 04:18:12;;;;;;;28.73;20.52;;;14.60;99.90;;;;;;5060577;28;20380;-79
2023/05/12 04:20:37;;;;;;;32.95;22.17;;;14.70;99.90;;;;;;5095368;28;20456;-81
2023/05/12 04:23:03;;;;;;;28.63;18.48;;;14.50;99.90;;;;;;5094289;28;20035;-80
2023/05/12 04:25:29;;;;;;;20.52;14.52;;;14.30;99.90;;;;;;5077514;28;20035;-80
2023/05/12 04:27:54;;;;;;;22.70;15.73;;;14.30;99.90;;;;;;5092889;28;20117;-80
2023/05/12 04:30:20;;;;;;;30.95;20.75;;;14.40;99.90;;;;;;5080839;28;20209;-80
2023/05/12 04:32:47;;;;;;;31.40;21.50;;;14.40;99.90;;;;;;5115765;28;20038;-80
2023/05/12 04:35:13;;;;;;;31.55;21.70;;;14.30;99.90;;;;;;5115815;28;20110;-80
2023/05/12 04:37:39;;;;;;;39.55;25.25;;;14.20;99.90;;;;;;5097495;28;20063;-81
2023/05/12 04:40:06;;;;;;;34.90;22.95;;;14.20;99.90;;;;;;5097657;28;20353;-79
2023/05/12 04:42:32;;;;;;;39.90;25.77;;;14.10;99.90;;;;;;5115724;28;20488;-80
2023/05/12 04:44:57;;;;;;;39.20;25.65;;;14.10;99.90;;;;;;5114034;28;20034;-80
2023/05/12 04:47:23;;;;;;;35.30;23.08;;;14.10;99.90;;;;;;5113980;28;20027;-80
2023/05/12 04:49:49;;;;;;;43.72;25.90;;;14.10;99.90;;;;;;5080100;28;20486;-81
2023/05/12 04:52:14;;;;;;;28.08;18.88;;;14.10;99.90;;;;;;5097571;28;20043;-81
2023/05/12 04:54:40;;;;;;;43.22;28.55;;;14.20;99.90;;;;;;5097367;28;20027;-80
2023/05/12 04:57:06;;;;;;;41.00;27.25;;;14.30;99.90;;;;;;5096906;28;20085;-81
2023/05/12 04:59:31;;;;;;;44.70;29.20;;;14.30;99.90;;;;;;5115399;28;20032;-81
2023/05/12 05:01:57;;;;;;;35.63;24.27;;;14.30;99.90;;;;;;5115320;28;20556;-80
2023/05/12 05:04:22;;;;;;;39.28;24.85;;;14.40;99.90;;;;;;5096811;28;20059;-81
2023/05/12 05:06:48;;;;;;;43.60;28.63;;;14.40;99.90;;;;;;5113830;28;20066;-81
2023/05/12 05:09:14;;;;;;;38.17;25.33;;;14.40;99.90;;;;;;5096914;28;20039;-80
2023/05/12 05:11:40;;;;;;;32.35;22.38;;;14.50;99.90;;;;;;5114599;28;20069;-80
2023/05/12 05:14:05;;;;;;;41.40;27.85;;;14.40;99.90;;;;;;5080011;28;20352;-81
2023/05/12 05:16:31;;;;;;;43.03;28.17;;;14.50;99.90;;;;;;5114739;28;20095;-82
2023/05/12 05:18:56;;;;;;;41.13;26.83;;;14.50;99.90;;;;;;5096105;28;20047;-80
2023/05/12 05:21:22;;;;;;;42.13;28.83;;;14.50;99.90;;;;;;5115177;28;20039;-81
2023/05/12 05:23:48;;;;;;;41.53;28.45;;;14.40;99.90;;;;;;5079640;28;20085;-80
2023/05/12 05:26:13;;;;;;;43.97;28.23;;;14.30;99.90;;;;;;5114130;28;20059;-79
2023/05/12 05:28:39;;;;;;;26.45;18.90;;;14.30;99.90;;;;;;5096192;28;20070;-79
2023/05/12 05:31:05;;;;;;;31.35;20.95;;;14.40;99.90;;;;;;5113703;28;20108;-80
2023/05/12 05:33:31;;;;;;;42.80;27.40;;;14.50;99.90;;;;;;5095870;28;20517;-81
2023/05/12 05:35:57;;;;;;;27.95;19.17;;;14.60;99.90;;;;;;5114555;28;20035;-81
2023/05/12 05:38:22;;;;;;;36.03;25.17;;;14.60;99.90;;;;;;5096544;28;20161;-81
2023/05/12 05:40:49;;;;;;;41.13;27.15;;;14.60;99.90;;;;;;5114835;28;20028;-80
2023/05/12 05:43:14;;;;;;;36.80;24.98;;;14.70;99.90;;;;;;5096248;28;20035;-81
2023/05/12 05:45:40;;;;;;;41.10;27.50;;;14.60;99.90;;;;;;5114517;28;20154;-80
2023/05/12 05:48:06;;;;;;;31.13;22.33;;;14.70;99.90;;;;;;5096112;28;20379;-83
2023/05/12 05:50:31;;;;;;;34.92;24.15;;;14.70;99.90;;;;;;5079269;28;20024;-82
2023/05/12 05:52:57;;;;;;;34.83;25.50;;;14.70;99.90;;;;;;5114287;28;20399;-81
2023/05/12 05:55:23;;;;;;;38.15;27.13;;;14.80;99.90;;;;;;5113108;28;20028;-82
2023/05/12 05:57:48;;;;;;;37.20;26.38;;;14.70;99.90;;;;;;5078566;28;20028;-81
2023/05/12 06:00:14;;;;;;;36.35;25.80;;;14.80;99.90;;;;;;5079375;28;20026;-82
2023/05/12 06:02:40;;;;;;;37.33;25.85;;;14.70;99.90;;;;;;5096106;28;20055;-80
2023/05/12 06:05:07;;;;;;;34.92;24.67;;;14.70;99.90;;;;;;5114229;28;20024;-81
2023/05/12 06:07:33;;;;;;;37.58;26.15;;;14.70;99.90;;;;;;5095953;28;20484;-81
2023/05/12 06:09:58;;;;;;;36.55;26.17;;;14.80;99.90;;;;;;5113532;28;20059;-81
2023/05/12 06:12:24;;;;;;;37.60;25.33;;;14.80;99.90;;;;;;5095874;28;20526;-81
2023/05/12 06:14:50;;;;;;;38.20;24.88;;;14.80;99.90;;;;;;5095691;28;20028;-81
2023/05/12 06:17:16;;;;;;;36.53;25.33;;;14.90;99.90;;;;;;5078932;28;20028;-81
2023/05/12 06:19:46;;;;;;;29.25;21.35;;;14.90;99.90;;;;;;5113206;28;20537;-80
2023/05/12 06:22:13;;;;;;;34.42;24.83;;;14.90;99.90;;;;;;5096839;28;20032;-82
2023/05/12 06:24:39;;;;;;;35.40;24.17;;;14.90;99.90;;;;;;5079844;28;20031;-80
2023/05/12 06:27:05;;;;;;;31.25;23.77;;;14.80;99.90;;;;;;5113662;28;20050;-81
2023/05/12 06:29:31;;;;;;;32.35;23.63;;;14.80;99.90;;;;;;5095824;28;20019;-81
2023/05/12 06:31:57;;;;;;;28.58;22.17;;;14.80;99.90;;;;;;5095598;28;20427;-81
2023/05/12 06:34:22;;;;;;;31.58;23.13;;;14.90;99.90;;;;;;5113639;28;20498;-81
2023/05/12 06:36:48;;;;;;;28.63;20.58;;;14.90;99.90;;;;;;5113838;28;20436;-81
2023/05/12 06:39:14;;;;;;;34.95;25.27;;;14.90;99.90;;;;;;5113888;28;20031;-81
2023/05/12 06:41:39;;;;;;;34.22;25.90;;;15.00;99.90;;;;;;5095576;28;20028;-81
2023/05/12 06:44:05;;;;;;;34.25;23.55;;;15.00;99.90;;;;;;5095760;28;20118;-80
2023/05/12 06:46:31;;;;;;;27.52;20.30;;;15.00;99.90;;;;;;5095928;28;20055;-81
2023/05/12 06:48:59;;;;;;;33.70;24.25;;;15.00;99.90;;;;;;5113670;28;20097;-80
2023/05/12 06:51:24;;;;;;;22.65;18.42;;;15.10;99.90;;;;;;5096004;28;20028;-81
2023/05/12 06:53:50;;;;;;;28.83;21.90;;;15.20;99.90;;;;;;5095250;28;20050;-82
2023/05/12 06:56:16;;;;;;;31.15;22.88;;;15.30;99.90;;;;;;5079443;28;20039;-82
2023/05/12 06:58:46;;;;;;;27.50;20.45;;;15.30;99.90;;;;;;5113785;28;20035;-81
2023/05/12 07:01:12;;;;;;;27.98;21.65;;;15.40;99.90;;;;;;5113650;28;20031;-82
2023/05/12 07:03:37;;;;;;;27.20;19.85;;;15.50;99.90;;;;;;5061922;28;20032;-82
2023/05/12 07:06:03;;;;;;;28.08;21.10;;;15.70;99.90;;;;;;5095678;28;20032;-82
2023/05/12 07:08:29;;;;;;;23.52;18.58;;;15.80;99.90;;;;;;5080170;28;20357;-79
2023/05/12 07:10:54;;;;;;;21.33;16.75;;;15.90;99.90;;;;;;5099930;28;20177;-81
2023/05/12 07:13:20;;;;;;;23.63;19.67;;;16.00;99.90;;;;;;5082283;28;20081;-81
2023/05/12 07:15:46;;;;;;;23.80;18.45;;;16.20;99.90;;;;;;5117549;28;20035;-82
2023/05/12 07:18:12;;;;;;;22.13;17.80;;;16.30;99.90;;;;;;5098481;28;20053;-82
2023/05/12 07:20:38;;;;;;;23.92;17.50;;;16.40;99.90;;;;;;5117308;28;20032;-82
2023/05/12 07:23:04;;;;;;;21.75;18.27;;;16.50;99.90;;;;;;5117626;28;20077;-80
2023/05/12 07:25:30;;;;;;;19.02;16.25;;;16.70;99.90;;;;;;5098933;28;20498;-82
2023/05/12 07:27:55;;;;;;;19.25;15.13;;;16.70;99.90;;;;;;5117682;28;20461;-81
2023/05/12 07:30:21;;;;;;;17.70;14.82;;;16.80;99.90;;;;;;5117230;28;20028;-82
2023/05/12 07:32:47;;;;;;;18.05;14.82;;;16.90;99.90;;;;;;5098896;28;20062;-82
2023/05/12 07:35:13;;;;;;;17.88;14.98;;;17.00;99.90;;;;;;5098687;28;20454;-81
2023/05/12 07:37:38;;;;;;;17.63;15.40;;;17.10;99.90;;;;;;5098765;28;20030;-81
2023/05/12 07:40:04;;;;;;;17.65;15.02;;;17.20;99.90;;;;;;5098954;28;20120;-82
2023/05/12 07:42:30;;;;;;;18.05;13.98;;;17.10;99.90;;;;;;5117192;28;20035;-82
2023/05/12 07:44:56;;;;;;;15.02;11.80;;;17.10;99.90;;;;;;5098572;28;20023;-81
2023/05/12 07:47:21;;;;;;;15.27;12.88;;;17.10;99.90;;;;;;5081584;28;20035;-82
2023/05/12 07:49:47;;;;;;;15.38;12.60;;;17.20;99.90;;;;;;5116060;28;20028;-81
2023/05/12 07:52:12;;;;;;;15.63;12.43;;;17.30;99.90;;;;;;5098362;28;20032;-81
2023/05/12 07:54:38;;;;;;;13.68;11.02;;;17.40;99.90;;;;;;5116654;28;20073;-82
2023/05/12 07:57:04;;;;;;;14.00;12.50;;;17.50;99.90;;;;;;5116486;28;20039;-82
2023/05/12 07:59:30;;;;;;;13.65;10.65;;;17.50;99.90;;;;;;5116044;28;20020;-81
2023/05/12 08:01:55;;;;;;;11.38;9.55;;;17.60;99.90;;;;;;5116034;28;20039;-83
2023/05/12 08:04:21;;;;;;;13.73;10.43;;;17.60;99.90;;;;;;5097926;28;20078;-83
2023/05/12 08:06:47;;;;;;;12.43;10.05;;;17.80;99.90;;;;;;5081348;28;20028;-82
2023/05/12 08:09:12;;;;;;;11.57;10.10;;;17.80;99.90;;;;;;5098446;28;20037;-82
2023/05/12 08:11:38;;;;;;;11.57;9.98;;;17.90;99.90;;;;;;5098112;28;20034;-82
2023/05/12 08:14:05;;;;;;;12.70;9.98;;;18.00;99.90;;;;;;5116484;28;20371;-81
2023/05/12 08:16:30;;;;;;;10.13;9.02;;;18.00;99.90;;;;;;5116293;28;20023;-81
2023/05/12 08:18:57;;;;;;;10.00;8.75;;;18.00;99.90;;;;;;5097574;28;20038;-81
2023/05/12 08:21:23;;;;;;;9.00;8.10;;;18.10;99.90;;;;;;5097352;28;20130;-81
2023/05/12 08:23:49;;;;;;;10.20;8.60;;;18.20;99.90;;;;;;5098676;28;20447;-81
2023/05/12 08:26:14;;;;;;;9.60;7.45;;;18.30;99.90;;;;;;5115708;28;20023;-80
2023/05/12 08:28:40;;;;;;;8.45;7.55;;;18.30;99.90;;;;;;5097939;28;20027;-82
2023/05/12 08:31:06;;;;;;;6.05;5.32;;;18.30;99.90;;;;;;5097838;28;20028;-81
2023/05/12 08:33:34;;;;;;;7.65;6.43;;;18.30;99.90;;;;;;5115895;28;20464;-81
2023/05/12 08:36:00;;;;;;;7.93;5.78;;;18.40;99.90;;;;;;5115914;28;20115;-82
2023/05/12 08:38:27;;;;;;;5.53;5.03;;;18.40;99.90;;;;;;5114822;28;20487;-81
2023/05/12 08:41:01;;;;;;;7.55;5.60;;;18.40;99.90;;;;;;5097503;28;20027;-81
2023/05/12 08:43:37;;;;;;;5.90;5.30;;;18.40;99.90;;;;;;5115767;28;20110;-80
2023/05/12 08:46:04;;;;;;;5.93;4.72;;;18.40;99.90;;;;;;5097904;28;20028;-81
2023/05/12 08:48:34;;;;;;;6.63;4.90;;;18.30;99.90;;;;;;5096923;28;20028;-82
2023/05/12 08:51:01;;;;;;;7.28;4.82;;;18.30;99.90;;;;;;5114448;28;20122;-83
2023/05/12 08:53:28;;;;;;;4.43;4.03;;;18.30;99.90;;;;;;5114101;28;20039;-81
2023/05/12 08:55:55;;;;;;;5.35;4.72;;;18.30;99.90;;;;;;5115080;28;20028;-81
2023/05/12 08:58:21;;;;;;;6.70;3.78;;;18.40;99.90;;;;;;5096627;28;20019;-81
2023/05/12 09:00:48;;;;;;;3.95;3.40;;;18.40;99.90;;;;;;5097307;28;20463;-81
2023/05/12 09:03:13;;;;;;;3.40;3.10;;;18.40;99.90;;;;;;5080011;28;20036;-81
2023/05/12 09:05:40;;;;;;;4.55;2.90;;;18.40;99.90;;;;;;5096925;28;20363;-82
2023/05/12 09:08:08;;;;;;;3.35;3.05;;;18.40;99.90;;;;;;5079752;28;20035;-81
2023/05/12 09:10:34;;;;;;;4.75;2.97;;;18.50;99.90;;;;;;5097035;28;20119;-82
2023/05/12 09:13:16;;;;;;;4.82;3.47;;;18.50;99.90;;;;;;5114958;28;20031;-81
2023/05/12 09:15:44;;;;;;;5.10;3.20;;;18.60;99.90;;;;;;5115214;28;20027;-81
2023/05/12 09:18:10;;;;;;;2.65;2.45;;;18.80;99.90;;;;;;5114425;28;20024;-81
2023/05/12 09:20:36;;;;;;;3.83;2.70;;;18.90;99.90;;;;;;5113747;28;20031;-81
2023/05/12 09:23:21;;;;;;;3.13;2.58;;;19.10;99.90;;;;;;5115017;28;20495;-81
2023/05/12 09:25:58;;;;;;;2.92;2.28;;;19.10;99.10;;;;;;5114897;28;20023;-81
2023/05/12 09:28:23;;;;;;;2.60;2.40;;;19.10;98.50;;;;;;5114981;28;20047;-81
2023/05/12 09:30:49;;;;;;;4.10;2.20;;;19.20;98.70;;;;;;5114462;28;20028;-80
2023/05/12 09:33:15;;;;;;;2.33;2.10;;;19.10;98.20;;;;;;5096525;28;20039;-80
2023/05/12 09:35:42;;;;;;;2.40;1.98;;;19.20;98.40;;;;;;5115196;28;20069;-81
2023/05/12 09:38:10;;;;;;;2.50;2.30;;;19.20;98.60;;;;;;5096835;28;20118;-81
2023/05/12 09:40:36;;;;;;;2.35;1.40;;;19.20;97.70;;;;;;5113950;28;20077;-81
2023/05/12 09:43:04;;;;;;;2.45;1.70;;;19.20;97.40;;;;;;5114562;28;20023;-80
2023/05/12 09:45:33;;;;;;;3.15;1.88;;;19.20;97.90;;;;;;5114528;28;20024;-81
2023/05/12 09:48:08;;;;;;;3.45;1.63;;;19.10;97.40;;;;;;5114529;28;20024;-81
2023/05/12 09:50:34;;;;;;;1.98;1.45;;;19.10;97.80;;;;;;5095641;28;20023;-81
2023/05/12 09:53:00;;;;;;;2.20;1.55;;;19.10;97.80;;;;;;5095878;28;20032;-80
2023/05/12 09:55:26;;;;;;;1.80;1.48;;;19.10;97.70;;;;;;5114641;28;20071;-81
2023/05/12 09:57:53;;;;;;;3.88;1.52;;;19.20;97.50;;;;;;5114347;28;20026;-81
2023/05/12 10:00:19;;;;;;;2.22;1.45;;;19.10;97.20;;;;;;5096557;28;20038;-81
2023/05/12 10:02:48;;;;;;;1.92;1.55;;;19.10;97.00;;;;;;5096354;28;20058;-81
2023/05/12 10:05:18;;;;;;;1.60;1.23;;;19.10;96.50;;;;;;5114173;28;20024;-81
2023/05/12 10:07:46;;;;;;;2.17;1.40;;;19.00;96.10;;;;;;5114276;28;20034;-81
2023/05/12 10:10:16;;;;;;;1.60;1.10;;;19.10;96.30;;;;;;5095909;28;20054;-81
2023/05/12 10:12:42;;;;;;;1.58;1.48;;;19.10;96.10;;;;;;5114573;28;20423;-81
2023/05/12 10:15:09;;;;;;;3.00;1.40;;;19.10;96.30;;;;;;5095976;28;20027;-81
2023/05/12 10:17:36;;;;;;;3.00;1.50;;;19.10;95.90;;;;;;5096140;28;20082;-83
2023/05/12 10:20:05;;;;;;;2.17;1.20;;;19.10;95.30;;;;;;5113723;28;20055;-80
2023/05/12 10:22:33;;;;;;;1.30;1.10;;;19.00;95.10;;;;;;5113727;28;20464;-82
2023/05/12 10:25:01;;;;;;;1.80;1.35;;;19.00;95.20;;;;;;5113987;28;20023;-81
2023/05/12 10:27:28;;;;;;;4.18;1.30;;;19.00;95.80;;;;;;5095404;28;20064;-82
2023/05/12 10:29:54;;;;;;;2.85;1.50;;;19.00;96.10;;;;;;5095842;28;20024;-81
2023/05/12 10:32:20;;;;;;;2.00;1.20;;;19.00;94.90;;;;;;5112719;28;20113;-81
2023/05/12 10:34:46;;;;;;;2.10;1.30;;;19.10;95.00;;;;;;5114011;28;20416;-80
2023/05/12 10:37:12;;;;;;;2.33;1.40;;;19.10;94.70;;;;;;5095773;28;20418;-81
2023/05/12 10:39:47;;;;;;;1.55;1.10;;;19.20;94.70;;;;;;5113664;28;20391;-80
2023/05/12 10:42:16;;;;;;;2.50;1.48;;;19.20;95.40;;;;;;5112588;28;20027;-80
2023/05/12 10:44:52;;;;;;;2.33;1.42;;;19.30;95.00;;;;;;5117287;28;20520;-79
2023/05/12 10:47:25;;;;;;;1.95;1.27;;;19.40;95.70;;;;;;5117750;28;20020;-81
2023/05/12 10:49:56;;;;;;;2.58;1.23;;;19.50;95.60;;;;;;5099151;28;20537;-80
2023/05/12 10:52:22;;;;;;;3.53;1.40;;;19.50;94.20;;;;;;5099549;28;20027;-80
2023/05/12 10:54:47;;;;;;;2.60;1.33;;;19.50;93.90;;;;;;5099659;28;20043;-81
2023/05/12 10:57:15;;;;;;;4.45;1.92;;;19.50;93.70;;;;;;5100082;28;20062;-81
2023/05/12 10:59:51;;;;;;;1.50;1.40;;;19.70;94.60;;;;;;5117958;28;20026;-81
2023/05/12 11:02:18;;;;;;;1.58;1.10;;;19.80;94.30;;;;;;5083439;28;20035;-81
2023/05/12 11:05:02;;;;;;;3.42;1.33;;;20.00;93.70;;;;;;5117465;28;20024;-81
2023/05/12 11:07:30;;;;;;;2.00;1.15;;;20.30;94.10;;;;;;5099756;28;20387;-82
2023/05/12 11:09:58;;;;;;;1.42;1.05;;;20.60;93.70;;;;;;5099211;28;20413;-81
2023/05/12 11:12:28;;;;;;;3.28;1.17;;;20.80;92.40;;;;;;5117399;28;20031;-82
2023/05/12 11:14:53;;;;;;;1.65;1.17;;;21.00;92.80;;;;;;5082237;28;20043;-81
2023/05/12 11:17:19;;;;;;;2.53;1.35;;;21.20;91.90;;;;;;5117471;28;20028;-81
2023/05/12 11:19:46;;;;;;;5.47;1.70;;;21.30;91.90;;;;;;5098936;28;20035;-80
2023/05/12 11:22:15;;;;;;;2.28;1.38;;;21.30;91.90;;;;;;5099389;28;20040;-81
2023/05/12 11:24:41;;;;;;;1.75;1.08;;;21.20;92.10;;;;;;5117342;28;20028;-81
2023/05/12 11:27:12;;;;;;;1.50;0.90;;;21.20;91.70;;;;;;5098573;28;20051;-81
2023/05/12 11:29:40;;;;;;;2.78;1.30;;;21.20;91.10;;;;;;5117332;28;20028;-81
2023/05/12 11:32:07;;;;;;;3.78;1.13;;;21.20;90.10;;;;;;5098622;28;20066;-82
2023/05/12 11:34:33;;;;;;;2.47;1.00;;;21.20;89.50;;;;;;5117254;28;20027;-81
2023/05/12 11:36:59;;;;;;;1.35;0.90;;;21.30;89.00;;;;;;5098762;28;20153;-80
2023/05/12 11:39:26;;;;;;;2.50;1.05;;;21.40;89.10;;;;;;5117065;28;20065;-80
2023/05/12 11:41:53;;;;;;;6.10;1.70;;;21.50;90.00;;;;;;5099205;28;20031;-82
2023/05/12 11:44:20;;;;;;;1.50;0.95;;;21.50;88.70;;;;;;5098569;28;20031;-81
2023/05/12 11:47:12;;;;;;;1.08;0.85;;;21.50;88.40;;;;;;5116795;28;20102;-80
2023/05/12 11:49:54;;;;;;;1.65;1.10;;;21.60;86.30;;;;;;5098082;28;20476;-80
2023/05/12 11:52:21;;;;;;;2.25;1.13;;;21.60;88.70;;;;;;5116894;28;20036;-80
2023/05/12 11:54:51;;;;;;;1.33;1.08;;;21.50;87.00;;;;;;5097583;28;20139;-81
2023/05/12 11:57:27;;;;;;;2.90;0.95;;;21.60;88.10;;;;;;5082352;28;20032;-79
2023/05/12 12:00:00;;;;;;;2.03;1.15;;;21.60;88.10;;;;;;5098346;28;20077;-81
2023/05/12 12:02:26;;;;;;;1.50;0.98;;;21.70;89.20;;;;;;5116668;28;20052;-81
2023/05/12 12:04:52;;;;;;;2.60;1.08;;;21.90;86.80;;;;;;5098352;28;20118;-81
2023/05/12 12:07:29;;;;;;;4.10;1.30;;;22.00;84.30;;;;;;5098262;28;20065;-78
2023/05/12 12:09:54;;;;;;;1.27;0.90;;;22.10;85.00;;;;;;5116727;28;20059;-80
2023/05/12 12:12:20;;;;;;;2.95;1.30;;;22.20;86.60;;;;;;5097932;28;20059;-81
2023/05/12 12:14:46;;;;;;;2.92;1.05;;;22.20;84.40;;;;;;5098202;28;20028;-81
2023/05/12 12:17:11;;;;;;;2.38;1.38;;;22.20;84.40;;;;;;5098073;28;20032;-81
2023/05/12 12:19:37;;;;;;;2.22;1.80;;;22.10;83.30;;;;;;5080795;28;20034;-81
2023/05/12 12:22:03;;;;;;;2.60;1.20;;;22.00;84.00;;;;;;5116255;28;20040;-80
2023/05/12 12:24:28;;;;;;;2.60;1.25;;;21.90;85.50;;;;;;5097799;28;20039;-79
2023/05/12 12:26:54;;;;;;;3.83;1.38;;;21.90;85.30;;;;;;5115955;28;20097;-81
2023/05/12 12:29:22;;;;;;;3.83;1.50;;;22.00;85.80;;;;;;5115928;28;20028;-80
2023/05/12 12:31:48;;;;;;;1.65;0.98;;;22.00;85.80;;;;;;5081714;28;20023;-80
2023/05/12 12:34:13;;;;;;;5.72;1.42;;;22.00;85.30;;;;;;5097805;28;20027;-80
2023/05/12 12:36:40;;;;;;;2.83;1.33;;;22.00;83.30;;;;;;5081521;28;20031;-80